Time;durP1;ratioP1;P1;durP2;ratioP2;P2;SDS_P1;SDS_P2;PMS_P1;PMS_P2;Temp;Humidity;BMP_temperature;BMP_pressure;BME280_temperature;BME280_humidity;BME280_pressure;Samples;Min_cycle;Max_cycle;Signal;HPM_P1;HPM_P2
2023/06/29 00:00:23;;;;;;;0.50;0.20;;;;;;;17.16;90.34;100304.59;5059439;28;20471;-50
2023/06/29 00:02:50;;;;;;;0.50;0.20;;;;;;;17.00;90.87;100298.34;5058942;28;20462;-50
2023/06/29 00:05:21;;;;;;;0.50;0.20;;;;;;;16.99;90.90;100314.50;5058698;28;20466;-50
2023/06/29 00:07:48;;;;;;;0.50;0.20;;;;;;;17.02;91.07;100307.16;5058126;28;20502;-51
2023/06/29 00:10:15;;;;;;;0.50;0.20;;;;;;;16.93;90.89;100302.28;5059355;28;20504;-50
2023/06/29 00:12:41;;;;;;;0.50;0.20;;;;;;;17.05;90.71;100311.50;5058465;28;20498;-51
2023/06/29 00:15:09;;;;;;;0.50;0.20;;;;;;;17.18;90.03;100309.88;5058363;28;20462;-50
2023/06/29 00:17:35;;;;;;;0.50;0.20;;;;;;;17.09;90.53;100305.00;5058856;28;20536;-50
2023/06/29 00:20:03;;;;;;;0.50;0.20;;;;;;;17.07;90.65;100305.09;5059077;28;20501;-50
2023/06/29 00:22:30;;;;;;;0.50;0.20;;;;;;;17.02;90.82;100307.16;5059353;28;20473;-51
2023/06/29 00:24:59;;;;;;;0.50;0.20;;;;;;;16.92;91.32;100294.31;5052253;28;20516;-51
2023/06/29 00:27:25;;;;;;;0.50;0.20;;;;;;;16.96;91.33;100295.88;5054019;28;20544;-50
2023/06/29 00:29:52;;;;;;;0.50;0.20;;;;;;;16.95;91.47;100296.84;5057796;28;20501;-50
2023/06/29 00:32:18;;;;;;;0.50;0.20;;;;;;;16.95;91.09;100304.88;5058454;28;20466;-51
2023/06/29 00:34:45;;;;;;;0.50;0.20;;;;;;;16.69;92.39;100298.25;5058015;28;20458;-50
2023/06/29 00:37:12;;;;;;;0.50;0.20;;;;;;;16.72;92.50;100295.38;5058074;28;20496;-51
2023/06/29 00:39:39;;;;;;;0.50;0.20;;;;;;;16.67;92.38;100298.31;5058774;28;20538;-50
2023/06/29 00:42:06;;;;;;;0.50;0.20;;;;;;;16.53;92.76;100293.66;5058361;28;20906;-50
2023/06/29 00:44:32;;;;;;;0.50;0.20;;;;;;;16.44;93.45;100296.81;5057803;28;20522;-49
2023/06/29 00:46:59;;;;;;;0.50;0.20;;;;;;;16.39;93.64;100293.53;5058022;28;20650;-50
2023/06/29 00:49:26;;;;;;;0.50;0.20;;;;;;;16.51;93.32;100295.56;5058532;28;20494;-50
2023/06/29 00:51:54;;;;;;;0.50;0.20;;;;;;;16.45;93.29;100287.84;5058628;28;20549;-50
2023/06/29 00:54:21;;;;;;;0.50;0.20;;;;;;;15.98;95.43;100292.97;5058368;28;20474;-50
2023/06/29 00:56:49;;;;;;;0.47;0.20;;;;;;;15.93;96.58;100277.13;5057640;28;20482;-50
2023/06/29 00:59:15;;;;;;;0.40;0.20;;;;;;;16.09;96.39;100289.75;5057100;28;20894;-51
2023/06/29 01:01:43;;;;;;;0.50;0.20;;;;;;;16.07;96.31;100278.25;5057540;28;20494;-50
2023/06/29 01:04:24;;;;;;;0.50;0.20;;;;;;;16.02;95.76;100275.78;5058029;28;20494;-50
2023/06/29 01:07:12;;;;;;;0.40;0.20;;;;;;;16.03;95.95;100276.63;5057647;28;21034;-50
2023/06/29 01:09:40;;;;;;;0.50;0.20;;;;;;;16.02;96.24;100275.78;5055396;28;20481;-50
2023/06/29 01:12:08;;;;;;;0.50;0.20;;;;;;;15.88;96.92;100278.28;5057873;28;20462;-50
2023/06/29 01:14:35;;;;;;;0.50;0.20;;;;;;;16.08;96.71;100272.78;5057535;28;20462;-50
2023/06/29 01:17:02;;;;;;;0.50;0.20;;;;;;;16.12;96.08;100278.88;5057532;28;20521;-50
2023/06/29 01:19:29;;;;;;;0.50;0.20;;;;;;;15.99;96.16;100283.97;5057946;28;20538;-50
2023/06/29 01:22:02;;;;;;;0.50;0.20;;;;;;;15.88;97.02;100284.53;5057807;28;20530;-50
2023/06/29 01:24:40;;;;;;;0.50;0.20;;;;;;;15.77;97.39;100286.91;5057563;28;20998;-50
2023/06/29 01:27:07;;;;;;;0.50;0.20;;;;;;;15.79;97.56;100281.47;5054639;28;20614;-50
2023/06/29 01:29:35;;;;;;;0.40;0.20;;;;;;;15.99;96.55;100275.94;5054484;28;21021;-51
2023/06/29 01:32:03;;;;;;;0.50;0.20;;;;;;;15.97;96.28;100283.19;5058181;28;20963;-50
2023/06/29 01:34:31;;;;;;;0.50;0.20;;;;;;;15.93;95.72;100276.25;5057843;28;20469;-51
2023/06/29 01:37:05;;;;;;;0.50;0.20;;;;;;;15.95;95.76;100277.91;5058059;28;20512;-50
2023/06/29 01:39:40;;;;;;;0.50;0.20;;;;;;;15.93;96.22;100278.94;5058134;28;20550;-50
2023/06/29 01:42:08;;;;;;;0.47;0.20;;;;;;;16.03;96.05;100277.50;5050797;28;20492;-50
2023/06/29 01:44:35;;;;;;;0.50;0.20;;;;;;;16.07;96.27;100281.78;5057677;28;20466;-51
2023/06/29 01:47:02;;;;;;;0.90;0.90;;;;;;;15.91;96.65;100272.81;5057362;28;20486;-51
2023/06/29 01:49:28;;;;;;;0.50;0.20;;;;;;;15.96;96.21;100276.97;5064961;28;20522;-50
2023/06/29 01:51:55;;;;;;;0.47;0.20;;;;;;;16.04;96.41;100281.09;5057737;28;20467;-50
2023/06/29 01:54:21;;;;;;;0.50;0.20;;;;;;;16.20;95.55;100279.34;5056566;28;20524;-50
2023/06/29 01:56:48;;;;;;;0.50;0.20;;;;;;;16.07;95.95;100275.56;5057519;28;20533;-50
2023/06/29 01:59:14;;;;;;;0.47;0.20;;;;;;;15.92;96.67;100271.84;5057251;28;20458;-50
2023/06/29 02:01:41;;;;;;;0.50;0.20;;;;;;;15.91;97.64;100278.16;5057270;28;20459;-50
2023/06/29 02:04:07;;;;;;;0.50;0.20;;;;;;;15.72;97.74;100264.81;5056539;28;20473;-50
2023/06/29 02:06:34;;;;;;;0.50;0.20;;;;;;;15.83;97.72;100264.25;5056291;28;20878;-50
2023/06/29 02:09:00;;;;;;;0.50;0.20;;;;;;;15.79;97.90;100262.69;5056463;28;20862;-50
2023/06/29 02:11:26;;;;;;;0.50;0.33;;;;;;;15.66;98.57;100254.41;5056692;28;20835;-50
2023/06/29 02:13:53;;;;;;;0.40;0.20;;;;;;;15.66;97.75;100255.28;5056293;28;20471;-50
2023/06/29 02:16:19;;;;;;;0.50;0.20;;;;;;;15.90;97.04;100249.63;5057214;28;20459;-51
2023/06/29 02:18:46;;;;;;;0.50;0.20;;;;;;;15.65;97.83;100248.19;5057194;28;20479;-50
2023/06/29 02:21:13;;;;;;;0.50;0.20;;;;;;;15.54;99.01;100242.44;5056746;28;20467;-51
2023/06/29 02:23:40;;;;;;;0.47;0.20;;;;;;;15.60;99.57;100246.66;5056287;28;20467;-50
2023/06/29 02:26:06;;;;;;;0.50;0.20;;;;;;;15.67;98.64;100248.97;5056690;28;20497;-50
2023/06/29 02:28:32;;;;;;;0.43;0.20;;;;;;;15.59;98.35;100244.88;5054667;28;20494;-50
2023/06/29 02:30:59;;;;;;;0.50;0.20;;;;;;;15.73;97.33;100238.88;5057066;28;20477;-50
2023/06/29 02:33:25;;;;;;;0.40;0.20;;;;;;;15.41;98.08;100238.63;5056630;28;21007;-50
2023/06/29 02:35:52;;;;;;;0.40;0.20;;;;;;;15.43;98.32;100241.25;5056631;28;20466;-50
2023/06/29 02:38:18;;;;;;;0.50;0.20;;;;;;;15.57;97.48;100241.41;5055731;28;20492;-50
2023/06/29 02:40:45;;;;;;;0.40;0.20;;;;;;;15.54;98.08;100241.56;5056273;28;20908;-50
2023/06/29 02:43:12;;;;;;;0.50;0.20;;;;;;;15.57;98.03;100253.00;5056435;28;20983;-50
2023/06/29 02:45:38;;;;;;;0.40;0.20;;;;;;;15.39;98.31;100254.78;5056490;28;20471;-49
2023/06/29 02:48:05;;;;;;;0.40;0.20;;;;;;;15.44;98.54;100256.38;5056633;28;20499;-50
2023/06/29 02:50:31;;;;;;;1.63;1.53;;;;;;;15.35;98.78;100253.22;5056175;28;20470;-49
2023/06/29 02:52:58;;;;;;;0.40;0.20;;;;;;;15.39;98.88;100257.47;5053557;28;20470;-51
2023/06/29 02:55:25;;;;;;;0.40;0.20;;;;;;;15.29;98.51;100260.66;5055673;28;20462;-50
2023/06/29 02:57:51;;;;;;;0.40;0.20;;;;;;;15.29;98.97;100257.97;5055963;28;20487;-51
2023/06/29 03:00:18;;;;;;;0.50;0.20;;;;;;;15.29;98.44;100255.31;5056119;28;20467;-51
2023/06/29 03:02:44;;;;;;;0.40;0.20;;;;;;;15.23;98.50;100250.25;5056166;28;20471;-51
2023/06/29 03:05:11;;;;;;;0.50;0.20;;;;;;;15.22;98.66;100256.56;5056508;28;20562;-51
2023/06/29 03:07:37;;;;;;;0.50;0.20;;;;;;;15.21;98.62;100250.31;5055380;28;20483;-50
2023/06/29 03:10:05;;;;;;;0.40;0.20;;;;;;;15.26;98.35;100247.44;5056330;28;20490;-51
2023/06/29 03:12:31;;;;;;;0.40;0.20;;;;;;;15.25;98.26;100238.53;5055869;28;20462;-50
2023/06/29 03:14:57;;;;;;;0.40;0.20;;;;;;;15.23;97.66;100239.53;5047765;28;20482;-50
2023/06/29 03:17:24;;;;;;;0.50;0.20;;;;;;;15.12;98.43;100234.69;5055247;28;20486;-50
2023/06/29 03:19:51;;;;;;;0.50;0.50;;;;;;;15.16;98.55;100230.06;5056082;28;20518;-50
2023/06/29 03:22:17;;;;;;;0.40;0.20;;;;;;;15.28;99.09;100229.47;5055793;28;20549;-51
2023/06/29 03:24:44;;;;;;;0.40;0.20;;;;;;;15.06;100.00;100225.13;5055440;28;20459;-50
2023/06/29 03:27:11;;;;;;;0.40;0.20;;;;;;;15.09;100.00;100230.38;5055765;28;20483;-50
2023/06/29 03:29:37;;;;;;;0.40;0.20;;;;;;;15.19;100.00;100224.53;5053516;28;20501;-50
2023/06/29 03:32:04;;;;;;;0.50;0.20;;;;;;;15.66;98.37;100233.81;5055645;28;20496;-50
2023/06/29 03:34:31;;;;;;;0.40;0.20;;;;;;;15.51;98.25;100228.34;5056418;28;20553;-50
2023/06/29 03:36:57;;;;;;;0.40;0.20;;;;;;;15.42;99.04;100226.97;5069223;22;20489;-52
2023/06/29 03:39:24;;;;;;;0.40;0.20;;;;;;;15.34;99.21;100226.47;5051549;28;20474;-52
2023/06/29 03:41:50;;;;;;;0.40;0.20;;;;;;;15.33;99.33;100225.59;5052199;28;20466;-52
2023/06/29 03:44:16;;;;;;;0.67;0.67;;;;;;;15.40;100.00;100226.19;5051877;28;20550;-52
2023/06/29 03:46:43;;;;;;;0.40;0.20;;;;;;;15.59;99.58;100229.72;5051799;28;20466;-51
2023/06/29 03:49:09;;;;;;;0.40;0.20;;;;;;;15.52;99.55;100227.41;5051549;28;20494;-51
2023/06/29 03:51:36;;;;;;;0.40;0.20;;;;;;;15.74;98.90;100230.75;5051369;28;20494;-52
2023/06/29 03:54:02;;;;;;;0.50;0.20;;;;;;;15.85;98.09;100231.06;5051530;28;20470;-52
2023/06/29 03:56:31;;;;;;;0.40;0.20;;;;;;;15.93;97.84;100236.06;5051584;28;20473;-51
2023/06/29 03:58:57;;;;;;;0.40;0.20;;;;;;;16.00;97.64;100232.09;5043545;28;20565;-51
2023/06/29 04:01:24;;;;;;;0.40;0.20;;;;;;;15.84;98.34;100225.78;5051635;28;20546;-51
2023/06/29 04:03:50;;;;;;;0.40;0.20;;;;;;;15.95;98.07;100228.78;5051314;28;20489;-51
2023/06/29 04:06:17;;;;;;;0.40;0.20;;;;;;;16.05;98.48;100223.84;5051191;28;20496;-52
2023/06/29 04:08:43;;;;;;;0.40;0.20;;;;;;;16.07;98.70;100220.13;5050966;28;20987;-52
2023/06/29 04:11:11;;;;;;;0.40;0.20;;;;;;;16.15;98.71;100212.50;5051534;28;20823;-52
2023/06/29 04:13:38;;;;;;;0.40;0.20;;;;;;;16.11;99.30;100216.31;5051409;28;20470;-51
2023/06/29 04:16:05;;;;;;;0.40;0.20;;;;;;;16.24;99.53;100211.16;5050971;28;20963;-51
2023/06/29 04:18:31;;;;;;;0.40;0.20;;;;;;;16.38;98.55;100216.66;5053928;28;20854;-51
2023/06/29 04:20:57;;;;;;;0.40;0.20;;;;;;;16.43;98.00;100221.78;5054312;28;20462;-52
2023/06/29 04:23:24;;;;;;;0.40;0.20;;;;;;;16.54;97.70;100214.88;5055261;28;20470;-52
2023/06/29 04:25:50;;;;;;;0.40;0.20;;;;;;;16.62;97.55;100206.44;5054991;28;20467;-51
2023/06/29 04:28:17;;;;;;;0.40;0.20;;;;;;;16.64;97.46;100209.88;5053029;28;20488;-52
2023/06/29 04:30:43;;;;;;;0.40;0.20;;;;;;;16.95;96.88;100206.41;5054386;28;20466;-52
2023/06/29 04:33:10;;;;;;;0.40;0.20;;;;;;;17.50;94.61;100208.59;5054843;28;20889;-51
2023/06/29 04:35:41;;;;;;;0.40;0.20;;;;;;;18.09;91.90;100209.56;5054464;28;20462;-52
2023/06/29 04:38:09;;;;;;;0.40;0.20;;;;;;;18.82;88.14;100205.03;5054626;28;20539;-51
2023/06/29 04:40:38;;;;;;;0.43;0.20;;;;;;;19.50;84.73;100202.34;5051414;28;20963;-52
2023/06/29 04:43:06;;;;;;;0.50;0.20;;;;;;;20.48;80.62;100202.88;5054711;28;20510;-52
2023/06/29 04:45:32;;;;;;;0.50;0.20;;;;;;;20.27;80.13;100203.38;5054625;28;20470;-53
2023/06/29 04:48:00;;;;;;;0.50;0.20;;;;;;;20.44;78.63;100199.53;5054625;28;20486;-52
2023/06/29 04:50:35;;;;;;;0.50;0.20;;;;;;;20.08;79.97;100197.53;5054849;28;20486;-52
2023/06/29 04:53:09;;;;;;;0.50;0.20;;;;;;;19.87;80.62;100205.25;5054716;28;20515;-52
2023/06/29 04:55:39;;;;;;;0.50;0.20;;;;;;;20.11;80.98;100200.88;5054291;28;20462;-52
2023/06/29 04:58:05;;;;;;;0.50;0.20;;;;;;;20.33;79.92;100202.94;5054135;28;20900;-52
2023/06/29 05:00:32;;;;;;;0.50;0.20;;;;;;;20.52;78.99;100199.84;5053846;28;20473;-54
2023/06/29 05:02:59;;;;;;;0.50;0.20;;;;;;;20.30;79.57;100197.78;5054058;28;20838;-52
2023/06/29 05:05:26;;;;;;;0.50;0.20;;;;;;;20.01;80.21;100204.31;5054409;28;20839;-52
2023/06/29 05:07:53;;;;;;;0.50;0.20;;;;;;;19.91;81.16;100205.94;5053756;28;20482;-52
2023/06/29 05:10:19;;;;;;;0.50;0.20;;;;;;;19.76;82.17;100202.47;5053909;28;20905;-52
2023/06/29 05:12:46;;;;;;;0.50;0.20;;;;;;;20.43;80.23;100197.81;5053777;28;20463;-52
2023/06/29 05:15:12;;;;;;;0.50;0.20;;;;;;;20.78;78.05;100202.50;5053974;28;20474;-52
2023/06/29 05:17:39;;;;;;;0.50;0.20;;;;;;;20.81;77.98;100195.03;5053649;28;20864;-52
2023/06/29 05:20:06;;;;;;;0.50;0.20;;;;;;;20.81;77.79;100200.44;5053988;28;20877;-52
2023/06/29 05:22:32;;;;;;;0.50;0.20;;;;;;;20.96;77.19;100191.22;5053699;28;20466;-51
2023/06/29 05:24:59;;;;;;;0.50;0.20;;;;;;;21.20;76.41;100198.50;5053984;28;20506;-52
2023/06/29 05:27:25;;;;;;;0.50;0.20;;;;;;;21.32;75.81;100197.63;5049493;28;20490;-52
2023/06/29 05:29:52;;;;;;;0.50;0.20;;;;;;;21.65;74.79;100199.63;5051415;28;20499;-52
2023/06/29 05:32:18;;;;;;;0.50;0.20;;;;;;;21.70;74.97;100208.25;5054089;28;20463;-52
2023/06/29 05:34:45;;;;;;;0.50;0.20;;;;;;;22.10;73.76;100203.38;5053588;28;20471;-52
2023/06/29 05:37:11;;;;;;;0.50;0.20;;;;;;;22.06;72.72;100201.03;5053541;28;20540;-52
2023/06/29 05:39:38;;;;;;;0.50;0.20;;;;;;;22.34;71.98;100197.91;5053565;28;20541;-52
2023/06/29 05:42:04;;;;;;;0.50;0.20;;;;;;;22.18;71.79;100192.81;5053308;28;20463;-52
2023/06/29 05:44:31;;;;;;;0.50;0.20;;;;;;;22.50;70.89;100188.56;5053363;28;20565;-52
2023/06/29 05:46:57;;;;;;;0.50;0.20;;;;;;;22.66;70.85;100184.50;5045575;28;20470;-52
2023/06/29 05:49:24;;;;;;;0.50;0.30;;;;;;;22.27;71.50;100190.38;5053122;28;20533;-53
2023/06/29 05:51:51;;;;;;;0.50;0.20;;;;;;;21.65;74.21;100191.50;5053273;28;20474;-52
2023/06/29 05:54:18;;;;;;;0.50;0.20;;;;;;;21.98;74.16;100190.78;5053461;28;21034;-52
2023/06/29 05:56:45;;;;;;;0.50;0.20;;;;;;;21.66;74.94;100187.84;5053083;28;20462;-51
2023/06/29 05:59:11;;;;;;;0.50;0.20;;;;;;;22.05;73.63;100188.44;5053078;28;20872;-52
2023/06/29 06:01:38;;;;;;;0.50;0.20;;;;;;;22.11;73.53;100183.44;5053085;28;20838;-52
2023/06/29 06:04:05;;;;;;;0.50;0.20;;;;;;;22.28;72.40;100183.97;5053223;28;20485;-52
2023/06/29 06:06:32;;;;;;;0.50;0.20;;;;;;;22.70;71.66;100185.09;5052844;28;20963;-53
2023/06/29 06:08:59;;;;;;;0.50;0.20;;;;;;;22.54;71.91;100184.59;5052761;28;20495;-52
2023/06/29 06:11:25;;;;;;;0.50;0.20;;;;;;;22.68;70.78;100182.50;5052632;28;20955;-53
2023/06/29 06:13:52;;;;;;;0.50;0.20;;;;;;;22.93;69.89;100177.84;5052738;28;20842;-52
2023/06/29 06:16:18;;;;;;;0.50;0.20;;;;;;;22.94;70.15;100183.16;5053029;28;20466;-52
2023/06/29 06:18:45;;;;;;;0.50;0.20;;;;;;;23.21;70.67;100174.59;5052573;28;20482;-53
2023/06/29 06:21:11;;;;;;;0.50;0.20;;;;;;;23.58;68.26;100176.97;5052660;28;20973;-53
2023/06/29 06:23:38;;;;;;;0.50;0.20;;;;;;;23.86;66.56;100172.75;5052495;28;20467;-53
2023/06/29 06:26:04;;;;;;;0.50;0.23;;;;;;;23.86;66.98;100167.34;5052929;28;20470;-52
2023/06/29 06:28:30;;;;;;;0.50;0.20;;;;;;;23.44;68.90;100167.25;5051040;28;21071;-52
2023/06/29 06:30:57;;;;;;;0.50;0.20;;;;;;;24.09;66.46;100165.31;5052492;28;20530;-53
2023/06/29 06:33:23;;;;;;;0.50;0.30;;;;;;;23.63;67.28;100164.72;5052469;28;20470;-53
2023/06/29 06:35:50;;;;;;;0.50;0.20;;;;;;;23.75;67.82;100168.25;5052428;28;20470;-52
2023/06/29 06:38:17;;;;;;;0.50;0.20;;;;;;;23.99;67.13;100159.84;5052296;28;20577;-52
2023/06/29 06:40:44;;;;;;;0.50;0.20;;;;;;;24.16;66.72;100166.53;5052278;28;20485;-53
2023/06/29 06:43:10;;;;;;;0.50;0.20;;;;;;;23.89;66.90;100151.63;5052491;28;20493;-52
2023/06/29 06:45:37;;;;;;;0.50;0.20;;;;;;;24.08;66.32;100163.59;5052456;28;20494;-53
2023/06/29 06:48:04;;;;;;;0.50;0.20;;;;;;;24.03;66.72;100161.31;5052021;28;20581;-53
2023/06/29 06:50:30;;;;;;;0.50;0.30;;;;;;;24.33;65.72;100170.53;5051944;28;20501;-52
2023/06/29 06:52:57;;;;;;;0.50;0.30;;;;;;;24.18;66.41;100168.13;5051866;28;20820;-52
2023/06/29 06:55:23;;;;;;;0.50;0.20;;;;;;;24.59;65.39;100154.63;5052351;28;20520;-53
2023/06/29 06:57:50;;;;;;;0.50;0.20;;;;;;;25.13;63.24;100172.44;5052035;28;20511;-54
2023/06/29 07:00:17;;;;;;;0.50;0.30;;;;;;;25.11;63.71;100164.41;5052091;28;20754;-52
2023/06/29 07:02:43;;;;;;;0.50;0.30;;;;;;;25.71;61.01;100158.91;5051688;28;20469;-53
2023/06/29 07:05:10;;;;;;;0.50;0.30;;;;;;;25.21;62.77;100161.69;5052066;28;20466;-53
2023/06/29 07:07:36;;;;;;;0.50;0.30;;;;;;;25.55;63.20;100165.75;5051529;28;20482;-53
2023/06/29 07:10:04;;;;;;;0.50;0.20;;;;;;;25.38;62.32;100166.47;5052232;28;20498;-53
2023/06/29 07:12:30;;;;;;;0.50;0.30;;;;;;;26.06;61.33;100163.75;5052072;28;20916;-53
2023/06/29 07:14:57;;;;;;;0.50;0.30;;;;;;;26.18;59.62;100160.72;5043493;28;20479;-53
2023/06/29 07:17:24;;;;;;;0.50;0.27;;;;;;;25.81;60.60;100159.75;5051549;28;20490;-53
2023/06/29 07:19:50;;;;;;;0.50;0.30;;;;;;;25.84;60.91;100157.59;5051595;28;20893;-53
2023/06/29 07:22:20;;;;;;;0.50;0.43;;;;;;;25.87;59.46;100154.59;5051553;28;20972;-53
2023/06/29 07:24:49;;;;;;;0.70;0.70;;;;;;;25.50;60.53;100159.88;5051688;28;20508;-53
2023/06/29 07:27:16;;;;;;;0.50;0.30;;;;;;;25.77;61.26;100161.03;5051296;28;20565;-53
2023/06/29 07:29:42;;;;;;;0.50;0.20;;;;;;;25.75;61.85;100158.47;5049448;28;21033;-53
2023/06/29 07:32:09;;;;;;;0.50;0.20;;;;;;;26.12;59.86;100160.44;5051645;28;20494;-53
2023/06/29 07:34:35;;;;;;;0.50;0.20;;;;;;;25.24;62.00;100158.72;5051435;28;20469;-53
2023/06/29 07:37:02;;;;;;;0.50;0.30;;;;;;;25.25;61.94;100158.56;5051595;28;20493;-53
2023/06/29 07:39:29;;;;;;;0.50;0.23;;;;;;;25.39;62.03;100158.16;5052065;28;20458;-53
2023/06/29 07:41:55;;;;;;;0.50;0.30;;;;;;;25.36;61.54;100154.88;5051440;28;20896;-53
2023/06/29 07:44:21;;;;;;;0.50;0.30;;;;;;;25.50;61.69;100149.00;5051671;28;20467;-53
2023/06/29 07:46:48;;;;;;;0.50;0.30;;;;;;;25.25;61.17;100155.00;5051192;28;20550;-53
2023/06/29 07:49:15;;;;;;;0.50;0.20;;;;;;;25.24;61.49;100156.00;5051285;28;20628;-53
2023/06/29 07:51:42;;;;;;;0.50;0.20;;;;;;;25.30;61.79;100150.84;5051348;28;20474;-53
2023/06/29 07:54:09;;;;;;;0.50;0.30;;;;;;;25.43;60.79;100152.41;5055635;28;20512;-53
2023/06/29 07:56:36;;;;;;;0.50;0.23;;;;;;;25.40;60.28;100146.25;5055317;28;20466;-53
2023/06/29 07:59:05;;;;;;;0.50;0.30;;;;;;;25.94;58.64;100141.25;5055729;28;20461;-53
2023/06/29 08:01:34;;;;;;;0.50;0.30;;;;;;;26.43;55.64;100139.28;5055072;28;20632;-54
2023/06/29 08:04:01;;;;;;;0.50;0.23;;;;;;;26.05;56.90;100134.78;5055070;28;20469;-53
2023/06/29 08:06:31;;;;;;;0.50;0.20;;;;;;;27.07;54.49;100132.97;5055329;28;20466;-53
2023/06/29 08:09:01;;;;;;;0.50;0.30;;;;;;;26.89;54.25;100138.38;5054955;28;21018;-53
2023/06/29 08:11:28;;;;;;;0.50;0.20;;;;;;;27.08;52.73;100131.94;5055320;28;20490;-53
2023/06/29 08:13:55;;;;;;;0.50;0.30;;;;;;;27.09;52.25;100128.19;5054926;28;20462;-54
2023/06/29 08:16:21;;;;;;;0.50;0.20;;;;;;;26.99;51.31;100130.09;5055039;28;20504;-53
2023/06/29 08:18:49;;;;;;;0.50;0.30;;;;;;;26.22;53.06;100131.28;5037149;28;20487;-54
2023/06/29 08:21:16;;;;;;;0.50;0.30;;;;;;;26.50;53.06;100126.78;5055212;28;20524;-53
2023/06/29 08:23:42;;;;;;;0.50;0.20;;;;;;;27.25;50.91;100124.78;5055028;28;20503;-53
2023/06/29 08:26:09;;;;;;;0.50;0.30;;;;;;;27.50;50.17;100125.88;5055016;28;20528;-54
2023/06/29 08:28:35;;;;;;;0.50;0.30;;;;;;;27.11;51.14;100124.31;5052923;28;20986;-53
2023/06/29 08:31:02;;;;;;;0.50;0.30;;;;;;;27.58;49.66;100125.97;5054644;28;20468;-54
2023/06/29 08:33:32;;;;;;;0.50;0.30;;;;;;;27.55;49.25;100118.97;5054712;28;20541;-53
2023/06/29 08:35:59;;;;;;;0.50;0.30;;;;;;;27.06;49.72;100114.88;5054604;28;20473;-53
2023/06/29 08:38:25;;;;;;;0.50;0.30;;;;;;;27.25;49.82;100122.91;5054386;28;20986;-53
2023/06/29 08:40:52;;;;;;;0.50;0.30;;;;;;;27.38;48.37;100115.19;5054225;28;20549;-53
2023/06/29 08:43:19;;;;;;;0.50;0.30;;;;;;;27.43;48.32;100115.59;5054693;28;20441;-53
2023/06/29 08:45:45;;;;;;;0.50;0.30;;;;;;;27.13;49.14;100116.81;5054282;28;20946;-55
2023/06/29 08:48:14;;;;;;;0.50;0.30;;;;;;;26.86;49.90;100119.53;5054424;28;20492;-55
2023/06/29 08:50:45;;;;;;;0.50;0.30;;;;;;;27.39;48.71;100106.00;5054171;28;20482;-55
2023/06/29 08:53:13;;;;;;;0.50;0.30;;;;;;;27.04;47.52;100106.00;5054334;28;20463;-55
2023/06/29 08:55:41;;;;;;;0.50;0.30;;;;;;;26.91;49.06;100103.59;5053726;28;20451;-55
2023/06/29 08:58:08;;;;;;;0.50;0.30;;;;;;;27.62;48.20;100100.06;5053757;28;20983;-55
2023/06/29 09:00:36;;;;;;;0.50;0.30;;;;;;;27.07;49.99;100109.25;5054312;28;20445;-55
2023/06/29 09:03:03;;;;;;;0.50;0.30;;;;;;;26.95;49.66;100099.53;5054334;28;20474;-55
2023/06/29 09:05:30;;;;;;;0.50;0.30;;;;;;;27.62;48.79;100106.38;5054346;28;20462;-55
2023/06/29 09:07:57;;;;;;;0.50;0.40;;;;;;;27.83;47.97;100103.34;5053752;28;20486;-55
2023/06/29 09:10:23;;;;;;;0.50;0.30;;;;;;;28.24;46.56;100106.34;5053822;28;20469;-55
2023/06/29 09:12:52;;;;;;;0.50;0.30;;;;;;;27.54;48.06;100094.50;5052831;28;20994;-55
2023/06/29 09:15:20;;;;;;;0.50;0.30;;;;;;;27.52;47.49;100105.59;5054161;28;20524;-55
2023/06/29 09:17:54;;;;;;;0.50;0.30;;;;;;;27.70;48.19;100100.16;5053863;28;20493;-55
2023/06/29 09:20:21;;;;;;;0.50;0.30;;;;;;;27.76;47.90;100096.78;5053707;28;20437;-55
2023/06/29 09:22:51;;;;;;;0.50;0.30;;;;;;;27.89;47.01;100090.91;5053805;28;20499;-55
2023/06/29 09:25:18;;;;;;;0.73;0.73;;;;;;;27.98;46.77;100089.97;5053620;28;20878;-55
2023/06/29 09:28:04;;;;;;;0.50;0.50;;;;;;;27.79;46.97;100087.41;5053994;28;20498;-55
2023/06/29 09:30:37;;;;;;;1.17;1.17;;;;;;;28.09;46.01;100092.38;5052821;28;20544;-55
2023/06/29 09:33:05;;;;;;;0.50;0.30;;;;;;;28.20;44.97;100088.53;5047175;28;20477;-55
2023/06/29 09:35:32;;;;;;;0.50;0.30;;;;;;;28.26;45.66;100090.63;5053441;28;21027;-55
2023/06/29 09:38:01;;;;;;;0.50;0.30;;;;;;;28.16;45.89;100092.63;5054000;28;20465;-54
2023/06/29 09:40:29;;;;;;;0.50;0.30;;;;;;;27.97;45.94;100099.16;5053812;28;20503;-54
2023/06/29 09:42:55;;;;;;;0.50;0.30;;;;;;;28.27;46.22;100089.66;5053344;28;20499;-54
2023/06/29 09:45:28;;;;;;;0.50;0.30;;;;;;;28.16;45.38;100092.63;5053477;28;20466;-54
2023/06/29 09:47:54;;;;;;;0.50;0.30;;;;;;;28.01;46.11;100085.00;5052928;28;20485;-54
2023/06/29 09:50:24;;;;;;;0.50;0.30;;;;;;;28.45;45.18;100086.81;5053485;28;20468;-54
2023/06/29 09:52:52;;;;;;;0.50;0.30;;;;;;;28.41;44.28;100079.97;5053325;28;20543;-53
2023/06/29 09:55:28;;;;;;;0.50;0.30;;;;;;;27.70;46.52;100081.03;5053351;28;20545;-53
2023/06/29 09:57:57;;;;;;;0.50;0.50;;;;;;;27.76;46.37;100085.00;5053015;28;20478;-54
2023/06/29 10:00:23;;;;;;;0.50;0.23;;;;;;;27.78;46.61;100080.22;5053049;28;20466;-54
2023/06/29 10:02:50;;;;;;;0.50;0.30;;;;;;;27.77;47.97;100076.63;5052664;28;20573;-54
2023/06/29 10:05:16;;;;;;;0.50;0.27;;;;;;;27.80;47.89;100072.72;5053140;28;20469;-54
2023/06/29 10:07:43;;;;;;;0.67;0.67;;;;;;;27.68;47.08;100075.72;5052468;28;20464;-54
2023/06/29 10:10:14;;;;;;;0.50;0.30;;;;;;;27.53;48.95;100076.41;5052746;28;21044;-53
2023/06/29 10:12:41;;;;;;;0.50;0.30;;;;;;;27.49;47.65;100078.59;5052584;28;20890;-54
2023/06/29 10:15:11;;;;;;;0.50;0.30;;;;;;;27.35;48.70;100074.56;5052117;28;20497;-54
2023/06/29 10:17:46;;;;;;;0.50;0.30;;;;;;;27.38;47.94;100071.50;5052646;28;20873;-54
2023/06/29 10:20:15;;;;;;;0.50;0.30;;;;;;;27.41;48.63;100065.75;5052739;28;20428;-53
2023/06/29 10:22:44;;;;;;;0.50;0.23;;;;;;;27.59;47.60;100064.88;5052596;28;20463;-53
2023/06/29 10:25:15;;;;;;;0.50;0.30;;;;;;;27.31;48.16;100066.84;5052668;28;20512;-53
2023/06/29 10:27:42;;;;;;;0.50;0.30;;;;;;;27.56;47.34;100065.19;5052417;28;20489;-53
2023/06/29 10:30:10;;;;;;;0.50;0.40;;;;;;;27.42;48.21;100064.75;5051157;28;20593;-54
2023/06/29 10:32:38;;;;;;;0.50;0.30;;;;;;;27.35;47.44;100069.09;5052456;28;20437;-54
2023/06/29 10:35:10;;;;;;;0.50;0.30;;;;;;;27.49;48.64;100072.28;5052417;28;20486;-53
2023/06/29 10:37:38;;;;;;;0.50;0.30;;;;;;;27.38;47.77;100063.31;5051767;28;20556;-54
2023/06/29 10:40:11;;;;;;;0.50;0.20;;;;;;;27.31;47.79;100064.13;5052116;28;20467;-54
2023/06/29 10:42:37;;;;;;;0.50;0.30;;;;;;;27.00;47.62;100066.31;5052139;28;20437;-54
2023/06/29 10:45:16;;;;;;;0.50;0.30;;;;;;;27.15;48.20;100056.66;5052365;28;20527;-53
2023/06/29 10:47:43;;;;;;;0.50;0.30;;;;;;;27.41;47.42;100053.94;5052035;28;20921;-53
2023/06/29 10:50:10;;;;;;;0.50;0.30;;;;;;;27.17;47.78;100049.16;5052186;28;20899;-54
2023/06/29 10:52:38;;;;;;;0.50;0.23;;;;;;;27.11;49.31;100050.63;5051900;28;20891;-54
2023/06/29 10:55:31;;;;;;;2.30;0.67;;;;;;;26.74;49.65;100048.00;5052479;28;20462;-53
2023/06/29 10:58:26;;;;;;;0.50;0.30;;;;;;;27.08;49.11;100052.81;5052060;28;20523;-53
2023/06/29 11:00:53;;;;;;;0.50;0.30;;;;;;;26.95;49.18;100055.88;5051692;28;20551;-54
2023/06/29 11:03:21;;;;;;;0.50;0.30;;;;;;;27.00;49.43;100056.28;5052130;28;20969;-54
2023/06/29 11:05:50;;;;;;;0.50;0.30;;;;;;;26.88;49.02;100048.50;5051796;28;20466;-54
2023/06/29 11:08:19;;;;;;;0.50;0.30;;;;;;;26.49;50.44;100046.84;5034101;28;20639;-54
2023/06/29 11:10:46;;;;;;;0.50;0.30;;;;;;;26.72;51.10;100047.28;5051637;28;20502;-54
2023/06/29 11:13:13;;;;;;;0.50;0.30;;;;;;;26.58;51.23;100051.38;5051761;28;20467;-54
2023/06/29 11:15:40;;;;;;;0.50;0.20;;;;;;;26.72;50.06;100051.88;5051475;28;20528;-53
2023/06/29 11:18:08;;;;;;;0.50;0.30;;;;;;;26.62;50.70;100051.94;5051791;28;20509;-53
2023/06/29 11:20:39;;;;;;;0.50;0.23;;;;;;;26.84;50.14;100047.91;5060004;28;20520;-54
2023/06/29 11:23:07;;;;;;;0.50;0.30;;;;;;;26.58;52.29;100039.59;5051929;28;20822;-53
2023/06/29 11:25:36;;;;;;;0.50;0.20;;;;;;;27.01;50.99;100036.22;5051418;28;20516;-54